sensor_id;sensor_type;location;lat;lon;timestamp;P1;durP1;ratioP1;P2;durP2;ratioP2
59147;SDS011;44930;52.878;6.168;2023-07-09T00:02:20;11.70;;;7.47;;
59147;SDS011;44930;52.878;6.168;2023-07-09T00:04:49;9.50;;;7.95;;
59147;SDS011;44930;52.878;6.168;2023-07-09T00:07:17;14.35;;;9.20;;
59147;SDS011;44930;52.878;6.168;2023-07-09T00:09:55;10.75;;;7.78;;
59147;SDS011;44930;52.878;6.168;2023-07-09T00:12:21;11.43;;;8.77;;
59147;SDS011;44930;52.878;6.168;2023-07-09T00:14:48;9.98;;;7.35;;
59147;SDS011;44930;52.878;6.168;2023-07-09T00:19:52;11.70;;;8.82;;
59147;SDS011;44930;52.878;6.168;2023-07-09T00:22:18;14.23;;;7.88;;
59147;SDS011;44930;52.878;6.168;2023-07-09T00:24:47;12.32;;;8.05;;
59147;SDS011;44930;52.878;6.168;2023-07-09T00:27:16;13.32;;;8.25;;
59147;SDS011;44930;52.878;6.168;2023-07-09T00:29:43;13.57;;;8.38;;
59147;SDS011;44930;52.878;6.168;2023-07-09T00:32:17;11.15;;;8.00;;
59147;SDS011;44930;52.878;6.168;2023-07-09T00:34:48;10.35;;;8.27;;
59147;SDS011;44930;52.878;6.168;2023-07-09T00:37:16;11.77;;;8.38;;
59147;SDS011;44930;52.878;6.168;2023-07-09T00:39:43;11.63;;;8.55;;
59147;SDS011;44930;52.878;6.168;2023-07-09T00:42:16;10.75;;;8.07;;
59147;SDS011;44930;52.878;6.168;2023-07-09T00:47:13;10.60;;;7.85;;
59147;SDS011;44930;52.878;6.168;2023-07-09T00:49:43;13.18;;;8.70;;
59147;SDS011;44930;52.878;6.168;2023-07-09T00:52:18;14.80;;;9.65;;
59147;SDS011;44930;52.878;6.168;2023-07-09T00:54:57;11.30;;;7.63;;
59147;SDS011;44930;52.878;6.168;2023-07-09T00:57:26;13.65;;;8.77;;
59147;SDS011;44930;52.878;6.168;2023-07-09T00:59:55;12.63;;;8.35;;
59147;SDS011;44930;52.878;6.168;2023-07-09T01:02:23;13.38;;;9.15;;
59147;SDS011;44930;52.878;6.168;2023-07-09T01:04:51;14.77;;;9.13;;
59147;SDS011;44930;52.878;6.168;2023-07-09T01:07:20;14.82;;;8.30;;
59147;SDS011;44930;52.878;6.168;2023-07-09T01:09:46;13.15;;;9.48;;
59147;SDS011;44930;52.878;6.168;2023-07-09T01:12:12;15.43;;;8.40;;
59147;SDS011;44930;52.878;6.168;2023-07-09T01:14:40;14.73;;;9.73;;
59147;SDS011;44930;52.878;6.168;2023-07-09T01:17:06;14.27;;;8.23;;
59147;SDS011;44930;52.878;6.168;2023-07-09T01:19:40;10.43;;;7.93;;
59147;SDS011;44930;52.878;6.168;2023-07-09T01:22:08;11.48;;;7.93;;
59147;SDS011;44930;52.878;6.168;2023-07-09T01:24:52;10.35;;;8.02;;
59147;SDS011;44930;52.878;6.168;2023-07-09T01:27:45;14.10;;;9.10;;
59147;SDS011;44930;52.878;6.168;2023-07-09T01:32:47;9.88;;;7.88;;
59147;SDS011;44930;52.878;6.168;2023-07-09T01:35:15;12.82;;;7.90;;
59147;SDS011;44930;52.878;6.168;2023-07-09T01:37:42;11.25;;;8.07;;
59147;SDS011;44930;52.878;6.168;2023-07-09T01:40:09;9.90;;;8.20;;
59147;SDS011;44930;52.878;6.168;2023-07-09T01:42:36;13.32;;;8.77;;
59147;SDS011;44930;52.878;6.168;2023-07-09T01:45:06;12.52;;;8.65;;
59147;SDS011;44930;52.878;6.168;2023-07-09T01:47:32;15.88;;;9.70;;
59147;SDS011;44930;52.878;6.168;2023-07-09T01:49:58;9.90;;;8.07;;
59147;SDS011;44930;52.878;6.168;2023-07-09T01:52:25;10.20;;;8.55;;
59147;SDS011;44930;52.878;6.168;2023-07-09T01:54:54;11.20;;;8.98;;
59147;SDS011;44930;52.878;6.168;2023-07-09T01:57:21;10.82;;;7.57;;
59147;SDS011;44930;52.878;6.168;2023-07-09T01:59:58;12.55;;;8.02;;
59147;SDS011;44930;52.878;6.168;2023-07-09T02:02:24;9.98;;;8.07;;
59147;SDS011;44930;52.878;6.168;2023-07-09T02:04:51;12.00;;;8.90;;
59147;SDS011;44930;52.878;6.168;2023-07-09T02:07:19;11.63;;;8.60;;
59147;SDS011;44930;52.878;6.168;2023-07-09T02:09:46;12.25;;;8.15;;
59147;SDS011;44930;52.878;6.168;2023-07-09T02:12:12;12.05;;;8.02;;
59147;SDS011;44930;52.878;6.168;2023-07-09T02:14:39;12.23;;;10.13;;
59147;SDS011;44930;52.878;6.168;2023-07-09T02:17:05;13.50;;;8.07;;
59147;SDS011;44930;52.878;6.168;2023-07-09T02:19:31;13.05;;;7.95;;
59147;SDS011;44930;52.878;6.168;2023-07-09T02:21:57;12.70;;;8.52;;
59147;SDS011;44930;52.878;6.168;2023-07-09T02:24:23;10.65;;;8.88;;
59147;SDS011;44930;52.878;6.168;2023-07-09T02:26:53;9.98;;;7.97;;
59147;SDS011;44930;52.878;6.168;2023-07-09T02:29:19;9.80;;;8.27;;
59147;SDS011;44930;52.878;6.168;2023-07-09T02:31:45;9.93;;;7.57;;
59147;SDS011;44930;52.878;6.168;2023-07-09T02:34:13;14.38;;;8.82;;
59147;SDS011;44930;52.878;6.168;2023-07-09T02:36:38;13.70;;;8.38;;
59147;SDS011;44930;52.878;6.168;2023-07-09T02:39:08;15.55;;;9.45;;
59147;SDS011;44930;52.878;6.168;2023-07-09T02:41:35;11.15;;;9.50;;
59147;SDS011;44930;52.878;6.168;2023-07-09T02:44:01;14.10;;;8.95;;
59147;SDS011;44930;52.878;6.168;2023-07-09T02:46:26;11.32;;;9.65;;
59147;SDS011;44930;52.878;6.168;2023-07-09T02:48:52;11.95;;;9.43;;
59147;SDS011;44930;52.878;6.168;2023-07-09T02:51:17;13.15;;;9.27;;
59147;SDS011;44930;52.878;6.168;2023-07-09T02:53:43;10.52;;;8.90;;
59147;SDS011;44930;52.878;6.168;2023-07-09T02:56:08;13.40;;;9.13;;
59147;SDS011;44930;52.878;6.168;2023-07-09T02:58:34;11.77;;;8.85;;
59147;SDS011;44930;52.878;6.168;2023-07-09T03:01:00;15.32;;;9.48;;
59147;SDS011;44930;52.878;6.168;2023-07-09T03:03:26;10.95;;;8.23;;
59147;SDS011;44930;52.878;6.168;2023-07-09T03:05:53;10.45;;;8.25;;
59147;SDS011;44930;52.878;6.168;2023-07-09T03:08:19;10.35;;;7.78;;
59147;SDS011;44930;52.878;6.168;2023-07-09T03:10:44;12.18;;;8.45;;
59147;SDS011;44930;52.878;6.168;2023-07-09T03:13:10;11.68;;;8.35;;
59147;SDS011;44930;52.878;6.168;2023-07-09T03:15:35;12.60;;;8.35;;
59147;SDS011;44930;52.878;6.168;2023-07-09T03:18:01;11.73;;;8.13;;
59147;SDS011;44930;52.878;6.168;2023-07-09T03:20:26;11.23;;;8.48;;
59147;SDS011;44930;52.878;6.168;2023-07-09T03:22:52;12.77;;;9.00;;
59147;SDS011;44930;52.878;6.168;2023-07-09T03:25:17;14.57;;;9.32;;
59147;SDS011;44930;52.878;6.168;2023-07-09T03:27:43;12.85;;;8.75;;
59147;SDS011;44930;52.878;6.168;2023-07-09T03:30:11;11.52;;;8.80;;
59147;SDS011;44930;52.878;6.168;2023-07-09T03:32:37;13.73;;;9.23;;
59147;SDS011;44930;52.878;6.168;2023-07-09T03:35:03;12.43;;;9.65;;
59147;SDS011;44930;52.878;6.168;2023-07-09T03:37:29;11.10;;;8.63;;
59147;SDS011;44930;52.878;6.168;2023-07-09T03:39:54;11.93;;;8.70;;
59147;SDS011;44930;52.878;6.168;2023-07-09T03:42:20;13.70;;;8.90;;
59147;SDS011;44930;52.878;6.168;2023-07-09T03:44:45;16.02;;;9.18;;
59147;SDS011;44930;52.878;6.168;2023-07-09T03:47:11;11.90;;;8.95;;
59147;SDS011;44930;52.878;6.168;2023-07-09T03:49:37;12.40;;;9.25;;
59147;SDS011;44930;52.878;6.168;2023-07-09T03:52:03;12.57;;;8.25;;
59147;SDS011;44930;52.878;6.168;2023-07-09T03:54:29;10.77;;;8.50;;
59147;SDS011;44930;52.878;6.168;2023-07-09T03:56:54;15.05;;;8.98;;
59147;SDS011;44930;52.878;6.168;2023-07-09T03:59:20;11.68;;;9.52;;
59147;SDS011;44930;52.878;6.168;2023-07-09T04:01:45;11.93;;;8.50;;
59147;SDS011;44930;52.878;6.168;2023-07-09T04:04:12;9.85;;;8.50;;
59147;SDS011;44930;52.878;6.168;2023-07-09T04:06:38;12.80;;;9.38;;
59147;SDS011;44930;52.878;6.168;2023-07-09T04:09:04;12.77;;;9.40;;
59147;SDS011;44930;52.878;6.168;2023-07-09T04:11:29;11.65;;;9.55;;
59147;SDS011;44930;52.878;6.168;2023-07-09T04:13:55;11.10;;;8.85;;
59147;SDS011;44930;52.878;6.168;2023-07-09T04:16:21;13.48;;;9.52;;
59147;SDS011;44930;52.878;6.168;2023-07-09T04:18:46;11.88;;;9.40;;
59147;SDS011;44930;52.878;6.168;2023-07-09T04:21:12;11.25;;;9.27;;
59147;SDS011;44930;52.878;6.168;2023-07-09T04:23:37;11.65;;;9.27;;
59147;SDS011;44930;52.878;6.168;2023-07-09T04:26:03;12.80;;;9.93;;
59147;SDS011;44930;52.878;6.168;2023-07-09T04:28:29;12.68;;;9.80;;
59147;SDS011;44930;52.878;6.168;2023-07-09T04:30:56;13.65;;;9.45;;
59147;SDS011;44930;52.878;6.168;2023-07-09T04:33:21;13.52;;;8.95;;
59147;SDS011;44930;52.878;6.168;2023-07-09T04:35:47;10.77;;;8.60;;
59147;SDS011;44930;52.878;6.168;2023-07-09T04:38:14;13.70;;;9.18;;
59147;SDS011;44930;52.878;6.168;2023-07-09T04:40:40;12.30;;;9.60;;
59147;SDS011;44930;52.878;6.168;2023-07-09T04:43:06;12.55;;;8.88;;
59147;SDS011;44930;52.878;6.168;2023-07-09T04:45:32;12.02;;;9.05;;
59147;SDS011;44930;52.878;6.168;2023-07-09T04:47:58;13.02;;;9.32;;
59147;SDS011;44930;52.878;6.168;2023-07-09T04:50:23;12.05;;;9.05;;
59147;SDS011;44930;52.878;6.168;2023-07-09T04:52:49;10.55;;;8.93;;
59147;SDS011;44930;52.878;6.168;2023-07-09T04:55:14;13.50;;;9.48;;
59147;SDS011;44930;52.878;6.168;2023-07-09T04:57:43;12.48;;;9.35;;
59147;SDS011;44930;52.878;6.168;2023-07-09T05:00:10;11.98;;;9.73;;
59147;SDS011;44930;52.878;6.168;2023-07-09T05:02:36;12.23;;;9.02;;
59147;SDS011;44930;52.878;6.168;2023-07-09T05:05:01;11.68;;;8.88;;
59147;SDS011;44930;52.878;6.168;2023-07-09T05:07:27;12.43;;;9.00;;
59147;SDS011;44930;52.878;6.168;2023-07-09T05:09:52;9.70;;;7.72;;
59147;SDS011;44930;52.878;6.168;2023-07-09T05:12:18;12.40;;;9.15;;
59147;SDS011;44930;52.878;6.168;2023-07-09T05:14:45;12.40;;;8.93;;
59147;SDS011;44930;52.878;6.168;2023-07-09T05:17:11;11.50;;;9.02;;
59147;SDS011;44930;52.878;6.168;2023-07-09T05:19:36;11.95;;;8.85;;
59147;SDS011;44930;52.878;6.168;2023-07-09T05:22:03;10.75;;;9.48;;
59147;SDS011;44930;52.878;6.168;2023-07-09T05:24:29;13.52;;;9.32;;
59147;SDS011;44930;52.878;6.168;2023-07-09T05:26:55;12.10;;;10.02;;
59147;SDS011;44930;52.878;6.168;2023-07-09T05:29:21;11.40;;;9.77;;
59147;SDS011;44930;52.878;6.168;2023-07-09T05:31:46;15.85;;;8.52;;
59147;SDS011;44930;52.878;6.168;2023-07-09T05:34:12;12.20;;;9.75;;
59147;SDS011;44930;52.878;6.168;2023-07-09T05:36:38;12.75;;;9.60;;
59147;SDS011;44930;52.878;6.168;2023-07-09T05:39:04;12.15;;;9.48;;
59147;SDS011;44930;52.878;6.168;2023-07-09T05:41:29;16.75;;;10.02;;
59147;SDS011;44930;52.878;6.168;2023-07-09T05:43:55;14.85;;;9.40;;
59147;SDS011;44930;52.878;6.168;2023-07-09T05:46:21;13.88;;;10.32;;
59147;SDS011;44930;52.878;6.168;2023-07-09T05:48:48;11.00;;;9.35;;
59147;SDS011;44930;52.878;6.168;2023-07-09T05:51:13;13.38;;;10.02;;
59147;SDS011;44930;52.878;6.168;2023-07-09T05:53:39;13.52;;;9.50;;
59147;SDS011;44930;52.878;6.168;2023-07-09T05:56:05;13.80;;;8.77;;
59147;SDS011;44930;52.878;6.168;2023-07-09T05:58:31;13.98;;;9.00;;
59147;SDS011;44930;52.878;6.168;2023-07-09T06:00:58;11.93;;;10.15;;
59147;SDS011;44930;52.878;6.168;2023-07-09T06:03:24;11.75;;;9.88;;
59147;SDS011;44930;52.878;6.168;2023-07-09T06:05:51;12.73;;;10.32;;
59147;SDS011;44930;52.878;6.168;2023-07-09T06:08:17;13.25;;;10.45;;
59147;SDS011;44930;52.878;6.168;2023-07-09T06:11:17;12.60;;;10.10;;
59147;SDS011;44930;52.878;6.168;2023-07-09T06:13:36;13.25;;;9.88;;
59147;SDS011;44930;52.878;6.168;2023-07-09T06:16:02;14.27;;;9.82;;
59147;SDS011;44930;52.878;6.168;2023-07-09T06:18:28;13.63;;;9.35;;
59147;SDS011;44930;52.878;6.168;2023-07-09T06:20:55;14.80;;;10.60;;
59147;SDS011;44930;52.878;6.168;2023-07-09T06:23:22;14.88;;;10.00;;
59147;SDS011;44930;52.878;6.168;2023-07-09T06:25:48;15.98;;;10.02;;
59147;SDS011;44930;52.878;6.168;2023-07-09T06:28:17;13.25;;;9.45;;
59147;SDS011;44930;52.878;6.168;2023-07-09T06:30:45;17.40;;;9.95;;
59147;SDS011;44930;52.878;6.168;2023-07-09T06:33:11;13.88;;;10.35;;
59147;SDS011;44930;52.878;6.168;2023-07-09T06:35:38;14.95;;;10.23;;
59147;SDS011;44930;52.878;6.168;2023-07-09T06:38:10;11.60;;;9.73;;
59147;SDS011;44930;52.878;6.168;2023-07-09T06:40:36;12.18;;;9.75;;
59147;SDS011;44930;52.878;6.168;2023-07-09T06:43:01;16.00;;;9.52;;
59147;SDS011;44930;52.878;6.168;2023-07-09T06:45:27;14.35;;;9.90;;
59147;SDS011;44930;52.878;6.168;2023-07-09T06:47:52;12.68;;;9.73;;
59147;SDS011;44930;52.878;6.168;2023-07-09T06:50:18;13.82;;;10.50;;
59147;SDS011;44930;52.878;6.168;2023-07-09T06:52:44;12.98;;;10.20;;
59147;SDS011;44930;52.878;6.168;2023-07-09T06:55:09;12.60;;;10.05;;
59147;SDS011;44930;52.878;6.168;2023-07-09T06:57:35;14.73;;;10.15;;
59147;SDS011;44930;52.878;6.168;2023-07-09T07:00:02;15.27;;;10.70;;
59147;SDS011;44930;52.878;6.168;2023-07-09T07:02:28;17.42;;;10.05;;
59147;SDS011;44930;52.878;6.168;2023-07-09T07:04:54;12.30;;;9.70;;
59147;SDS011;44930;52.878;6.168;2023-07-09T07:07:20;16.30;;;10.73;;
59147;SDS011;44930;52.878;6.168;2023-07-09T07:09:45;15.00;;;10.18;;
59147;SDS011;44930;52.878;6.168;2023-07-09T07:12:12;11.65;;;8.98;;
59147;SDS011;44930;52.878;6.168;2023-07-09T07:14:48;12.30;;;10.15;;
59147;SDS011;44930;52.878;6.168;2023-07-09T07:17:13;14.02;;;10.98;;
59147;SDS011;44930;52.878;6.168;2023-07-09T07:19:39;15.88;;;10.63;;
59147;SDS011;44930;52.878;6.168;2023-07-09T07:22:05;17.13;;;10.73;;
59147;SDS011;44930;52.878;6.168;2023-07-09T07:24:32;14.50;;;11.27;;
59147;SDS011;44930;52.878;6.168;2023-07-09T07:26:57;11.10;;;9.57;;
59147;SDS011;44930;52.878;6.168;2023-07-09T07:29:23;14.00;;;10.88;;
59147;SDS011;44930;52.878;6.168;2023-07-09T07:31:49;14.38;;;10.90;;
59147;SDS011;44930;52.878;6.168;2023-07-09T07:34:14;13.05;;;9.50;;
59147;SDS011;44930;52.878;6.168;2023-07-09T07:36:40;14.05;;;9.25;;
59147;SDS011;44930;52.878;6.168;2023-07-09T07:39:05;15.70;;;10.52;;
59147;SDS011;44930;52.878;6.168;2023-07-09T07:41:31;16.45;;;9.77;;
59147;SDS011;44930;52.878;6.168;2023-07-09T07:43:56;17.00;;;11.50;;
59147;SDS011;44930;52.878;6.168;2023-07-09T07:46:22;16.98;;;11.38;;
59147;SDS011;44930;52.878;6.168;2023-07-09T07:48:47;16.40;;;11.15;;
59147;SDS011;44930;52.878;6.168;2023-07-09T07:51:13;18.63;;;13.05;;
59147;SDS011;44930;52.878;6.168;2023-07-09T07:53:39;19.30;;;11.68;;
59147;SDS011;44930;52.878;6.168;2023-07-09T07:56:04;13.07;;;10.98;;
59147;SDS011;44930;52.878;6.168;2023-07-09T07:58:30;13.65;;;10.52;;
59147;SDS011;44930;52.878;6.168;2023-07-09T08:00:56;19.98;;;13.20;;
59147;SDS011;44930;52.878;6.168;2023-07-09T08:03:22;14.45;;;11.63;;
59147;SDS011;44930;52.878;6.168;2023-07-09T08:05:52;16.85;;;12.05;;
59147;SDS011;44930;52.878;6.168;2023-07-09T08:08:18;18.10;;;11.50;;
59147;SDS011;44930;52.878;6.168;2023-07-09T08:10:43;17.52;;;12.30;;
59147;SDS011;44930;52.878;6.168;2023-07-09T08:13:09;19.45;;;11.50;;
59147;SDS011;44930;52.878;6.168;2023-07-09T08:15:35;16.77;;;11.55;;
59147;SDS011;44930;52.878;6.168;2023-07-09T08:18:01;13.43;;;11.93;;
59147;SDS011;44930;52.878;6.168;2023-07-09T08:20:26;17.05;;;13.23;;
59147;SDS011;44930;52.878;6.168;2023-07-09T08:22:52;14.40;;;12.30;;
59147;SDS011;44930;52.878;6.168;2023-07-09T08:25:17;15.25;;;12.90;;
59147;SDS011;44930;52.878;6.168;2023-07-09T08:27:43;22.08;;;13.85;;
59147;SDS011;44930;52.878;6.168;2023-07-09T08:30:09;19.52;;;14.55;;
59147;SDS011;44930;52.878;6.168;2023-07-09T08:32:34;18.38;;;12.73;;
59147;SDS011;44930;52.878;6.168;2023-07-09T08:35:00;16.02;;;12.63;;
59147;SDS011;44930;52.878;6.168;2023-07-09T08:37:25;16.42;;;13.25;;
59147;SDS011;44930;52.878;6.168;2023-07-09T08:39:51;19.08;;;14.52;;
59147;SDS011;44930;52.878;6.168;2023-07-09T08:42:19;18.17;;;13.38;;
59147;SDS011;44930;52.878;6.168;2023-07-09T08:45:00;19.77;;;13.10;;
59147;SDS011;44930;52.878;6.168;2023-07-09T08:47:46;18.60;;;14.25;;
59147;SDS011;44930;52.878;6.168;2023-07-09T08:50:23;19.13;;;13.48;;
59147;SDS011;44930;52.878;6.168;2023-07-09T08:52:52;15.85;;;12.65;;
59147;SDS011;44930;52.878;6.168;2023-07-09T08:55:25;15.05;;;12.48;;
59147;SDS011;44930;52.878;6.168;2023-07-09T08:58:10;16.33;;;12.93;;
59147;SDS011;44930;52.878;6.168;2023-07-09T09:05:54;17.77;;;13.88;;
59147;SDS011;44930;52.878;6.168;2023-07-09T09:11:07;21.17;;;16.23;;
59147;SDS011;44930;52.878;6.168;2023-07-09T09:13:34;19.20;;;15.05;;
59147;SDS011;44930;52.878;6.168;2023-07-09T09:16:04;18.23;;;15.20;;
59147;SDS011;44930;52.878;6.168;2023-07-09T09:18:37;23.90;;;16.42;;
59147;SDS011;44930;52.878;6.168;2023-07-09T09:21:10;25.80;;;17.00;;
59147;SDS011;44930;52.878;6.168;2023-07-09T09:23:54;21.38;;;16.40;;
59147;SDS011;44930;52.878;6.168;2023-07-09T09:26:26;20.13;;;14.45;;
59147;SDS011;44930;52.878;6.168;2023-07-09T09:28:53;18.55;;;13.80;;
59147;SDS011;44930;52.878;6.168;2023-07-09T09:31:19;20.25;;;14.88;;
59147;SDS011;44930;52.878;6.168;2023-07-09T09:33:45;20.42;;;15.00;;
59147;SDS011;44930;52.878;6.168;2023-07-09T09:36:14;17.73;;;14.27;;
59147;SDS011;44930;52.878;6.168;2023-07-09T09:38:42;22.42;;;14.68;;
59147;SDS011;44930;52.878;6.168;2023-07-09T09:41:12;19.48;;;14.05;;
59147;SDS011;44930;52.878;6.168;2023-07-09T09:43:41;14.63;;;12.88;;
59147;SDS011;44930;52.878;6.168;2023-07-09T09:46:08;18.20;;;14.88;;
59147;SDS011;44930;52.878;6.168;2023-07-09T09:48:34;20.63;;;15.38;;
59147;SDS011;44930;52.878;6.168;2023-07-09T09:51:05;19.63;;;15.35;;
59147;SDS011;44930;52.878;6.168;2023-07-09T09:53:34;20.05;;;15.13;;
59147;SDS011;44930;52.878;6.168;2023-07-09T09:56:05;22.15;;;14.27;;
59147;SDS011;44930;52.878;6.168;2023-07-09T09:58:39;21.65;;;13.52;;
59147;SDS011;44930;52.878;6.168;2023-07-09T10:01:11;18.30;;;12.57;;
59147;SDS011;44930;52.878;6.168;2023-07-09T10:03:39;18.40;;;13.65;;
59147;SDS011;44930;52.878;6.168;2023-07-09T10:06:16;20.25;;;15.18;;
59147;SDS011;44930;52.878;6.168;2023-07-09T10:11:19;17.90;;;14.73;;
59147;SDS011;44930;52.878;6.168;2023-07-09T10:13:52;16.77;;;14.48;;
59147;SDS011;44930;52.878;6.168;2023-07-09T10:16:38;18.15;;;14.20;;
59147;SDS011;44930;52.878;6.168;2023-07-09T10:19:28;16.70;;;13.63;;
59147;SDS011;44930;52.878;6.168;2023-07-09T10:22:17;17.10;;;13.18;;
59147;SDS011;44930;52.878;6.168;2023-07-09T10:25:02;16.58;;;13.02;;
59147;SDS011;44930;52.878;6.168;2023-07-09T10:30:23;20.23;;;12.82;;
59147;SDS011;44930;52.878;6.168;2023-07-09T10:33:13;17.23;;;13.30;;
59147;SDS011;44930;52.878;6.168;2023-07-09T10:38:34;17.98;;;12.77;;
59147;SDS011;44930;52.878;6.168;2023-07-09T10:41:09;17.98;;;13.75;;
59147;SDS011;44930;52.878;6.168;2023-07-09T10:43:38;14.73;;;12.27;;
59147;SDS011;44930;52.878;6.168;2023-07-09T10:46:17;16.27;;;13.63;;
59147;SDS011;44930;52.878;6.168;2023-07-09T10:48:54;16.50;;;14.13;;
59147;SDS011;44930;52.878;6.168;2023-07-09T10:53:55;16.90;;;14.30;;
59147;SDS011;44930;52.878;6.168;2023-07-09T10:56:40;16.50;;;12.07;;
59147;SDS011;44930;52.878;6.168;2023-07-09T10:59:20;20.58;;;14.02;;
59147;SDS011;44930;52.878;6.168;2023-07-09T11:04:59;18.30;;;12.80;;
59147;SDS011;44930;52.878;6.168;2023-07-09T11:07:32;14.70;;;12.18;;
59147;SDS011;44930;52.878;6.168;2023-07-09T11:10:04;14.82;;;11.40;;
59147;SDS011;44930;52.878;6.168;2023-07-09T11:15:18;16.45;;;10.05;;
59147;SDS011;44930;52.878;6.168;2023-07-09T11:17:50;14.85;;;10.00;;
59147;SDS011;44930;52.878;6.168;2023-07-09T11:20:54;12.55;;;9.90;;
59147;SDS011;44930;52.878;6.168;2023-07-09T11:23:19;12.23;;;10.32;;
59147;SDS011;44930;52.878;6.168;2023-07-09T11:25:48;11.15;;;9.13;;
59147;SDS011;44930;52.878;6.168;2023-07-09T11:28:35;13.73;;;10.13;;
59147;SDS011;44930;52.878;6.168;2023-07-09T11:31:07;10.80;;;9.70;;
59147;SDS011;44930;52.878;6.168;2023-07-09T11:33:45;15.57;;;12.10;;
59147;SDS011;44930;52.878;6.168;2023-07-09T11:36:13;14.73;;;11.57;;
59147;SDS011;44930;52.878;6.168;2023-07-09T11:38:48;13.90;;;10.57;;
59147;SDS011;44930;52.878;6.168;2023-07-09T11:41:23;19.23;;;10.93;;
59147;SDS011;44930;52.878;6.168;2023-07-09T11:44:03;15.73;;;11.52;;
59147;SDS011;44930;52.878;6.168;2023-07-09T11:46:30;16.52;;;10.45;;
59147;SDS011;44930;52.878;6.168;2023-07-09T11:48:57;12.82;;;10.15;;
59147;SDS011;44930;52.878;6.168;2023-07-09T11:51:28;14.13;;;10.20;;
59147;SDS011;44930;52.878;6.168;2023-07-09T11:54:13;14.23;;;9.95;;
59147;SDS011;44930;52.878;6.168;2023-07-09T11:56:39;14.20;;;9.60;;
59147;SDS011;44930;52.878;6.168;2023-07-09T11:59:05;14.35;;;10.30;;
59147;SDS011;44930;52.878;6.168;2023-07-09T12:01:35;10.00;;;8.75;;
59147;SDS011;44930;52.878;6.168;2023-07-09T12:04:08;12.45;;;8.70;;
59147;SDS011;44930;52.878;6.168;2023-07-09T12:06:40;11.02;;;8.65;;
59147;SDS011;44930;52.878;6.168;2023-07-09T12:09:09;10.82;;;8.30;;
59147;SDS011;44930;52.878;6.168;2023-07-09T12:11:46;13.68;;;9.38;;
59147;SDS011;44930;52.878;6.168;2023-07-09T12:14:14;13.57;;;10.88;;
59147;SDS011;44930;52.878;6.168;2023-07-09T12:16:42;15.93;;;10.18;;
59147;SDS011;44930;52.878;6.168;2023-07-09T12:19:12;15.10;;;9.35;;
59147;SDS011;44930;52.878;6.168;2023-07-09T12:21:39;12.05;;;6.88;;
59147;SDS011;44930;52.878;6.168;2023-07-09T12:26:58;8.77;;;6.00;;
59147;SDS011;44930;52.878;6.168;2023-07-09T12:29:25;9.70;;;5.47;;
59147;SDS011;44930;52.878;6.168;2023-07-09T12:31:58;6.32;;;5.00;;
59147;SDS011;44930;52.878;6.168;2023-07-09T12:34:30;9.38;;;5.55;;
59147;SDS011;44930;52.878;6.168;2023-07-09T12:36:56;10.13;;;5.10;;
59147;SDS011;44930;52.878;6.168;2023-07-09T12:39:25;10.13;;;5.53;;
59147;SDS011;44930;52.878;6.168;2023-07-09T12:41:54;7.93;;;5.28;;
59147;SDS011;44930;52.878;6.168;2023-07-09T12:44:22;9.27;;;5.53;;
59147;SDS011;44930;52.878;6.168;2023-07-09T12:46:49;7.05;;;4.70;;
59147;SDS011;44930;52.878;6.168;2023-07-09T12:52:02;7.25;;;5.13;;
59147;SDS011;44930;52.878;6.168;2023-07-09T12:54:34;11.93;;;5.60;;
59147;SDS011;44930;52.878;6.168;2023-07-09T12:56:59;11.48;;;5.47;;
59147;SDS011;44930;52.878;6.168;2023-07-09T12:59:38;8.45;;;5.63;;
59147;SDS011;44930;52.878;6.168;2023-07-09T13:02:15;8.77;;;5.07;;
59147;SDS011;44930;52.878;6.168;2023-07-09T13:04:43;7.50;;;5.20;;
59147;SDS011;44930;52.878;6.168;2023-07-09T13:09:50;7.57;;;6.07;;
59147;SDS011;44930;52.878;6.168;2023-07-09T13:12:17;9.27;;;5.38;;
59147;SDS011;44930;52.878;6.168;2023-07-09T13:14:46;10.73;;;5.70;;
59147;SDS011;44930;52.878;6.168;2023-07-09T13:17:17;9.00;;;5.60;;
59147;SDS011;44930;52.878;6.168;2023-07-09T13:19:43;9.52;;;5.45;;
59147;SDS011;44930;52.878;6.168;2023-07-09T13:22:11;14.63;;;5.95;;
59147;SDS011;44930;52.878;6.168;2023-07-09T13:24:39;9.95;;;5.40;;
59147;SDS011;44930;52.878;6.168;2023-07-09T13:27:05;10.20;;;5.50;;
59147;SDS011;44930;52.878;6.168;2023-07-09T13:29:33;11.90;;;5.55;;
59147;SDS011;44930;52.878;6.168;2023-07-09T13:31:59;14.07;;;6.15;;
59147;SDS011;44930;52.878;6.168;2023-07-09T13:34:26;8.40;;;5.22;;
59147;SDS011;44930;52.878;6.168;2023-07-09T13:36:53;9.82;;;6.82;;
59147;SDS011;44930;52.878;6.168;2023-07-09T13:39:21;12.07;;;7.75;;
59147;SDS011;44930;52.878;6.168;2023-07-09T13:41:48;18.17;;;8.38;;
59147;SDS011;44930;52.878;6.168;2023-07-09T13:44:20;9.43;;;7.45;;
59147;SDS011;44930;52.878;6.168;2023-07-09T13:46:47;10.63;;;7.63;;
59147;SDS011;44930;52.878;6.168;2023-07-09T13:49:14;11.82;;;7.70;;
59147;SDS011;44930;52.878;6.168;2023-07-09T13:51:43;11.00;;;7.60;;
59147;SDS011;44930;52.878;6.168;2023-07-09T13:54:20;13.57;;;7.05;;
59147;SDS011;44930;52.878;6.168;2023-07-09T13:56:51;8.93;;;6.82;;
59147;SDS011;44930;52.878;6.168;2023-07-09T13:59:18;10.73;;;7.05;;
59147;SDS011;44930;52.878;6.168;2023-07-09T14:01:46;13.07;;;7.65;;
59147;SDS011;44930;52.878;6.168;2023-07-09T14:04:13;13.23;;;7.07;;
59147;SDS011;44930;52.878;6.168;2023-07-09T14:06:42;14.65;;;7.75;;
59147;SDS011;44930;52.878;6.168;2023-07-09T14:09:09;12.68;;;7.90;;
59147;SDS011;44930;52.878;6.168;2023-07-09T14:11:35;12.18;;;8.13;;
59147;SDS011;44930;52.878;6.168;2023-07-09T14:16:45;11.27;;;7.32;;
59147;SDS011;44930;52.878;6.168;2023-07-09T14:19:13;10.23;;;7.18;;
59147;SDS011;44930;52.878;6.168;2023-07-09T14:21:43;15.93;;;8.00;;
59147;SDS011;44930;52.878;6.168;2023-07-09T14:24:20;9.85;;;8.45;;
59147;SDS011;44930;52.878;6.168;2023-07-09T14:26:50;10.13;;;7.15;;
59147;SDS011;44930;52.878;6.168;2023-07-09T14:29:17;9.70;;;7.65;;
59147;SDS011;44930;52.878;6.168;2023-07-09T14:31:44;10.77;;;8.25;;
59147;SDS011;44930;52.878;6.168;2023-07-09T14:34:18;13.13;;;8.20;;
59147;SDS011;44930;52.878;6.168;2023-07-09T14:36:46;9.18;;;7.32;;
59147;SDS011;44930;52.878;6.168;2023-07-09T14:39:12;11.10;;;6.72;;
59147;SDS011;44930;52.878;6.168;2023-07-09T14:41:38;9.63;;;6.85;;
59147;SDS011;44930;52.878;6.168;2023-07-09T14:44:05;13.93;;;7.13;;
59147;SDS011;44930;52.878;6.168;2023-07-09T14:46:50;13.15;;;5.57;;
59147;SDS011;44930;52.878;6.168;2023-07-09T14:49:17;16.35;;;5.20;;
59147;SDS011;44930;52.878;6.168;2023-07-09T14:51:44;22.00;;;5.55;;
59147;SDS011;44930;52.878;6.168;2023-07-09T14:54:23;18.35;;;4.57;;
59147;SDS011;44930;52.878;6.168;2023-07-09T14:56:51;13.35;;;4.45;;
59147;SDS011;44930;52.878;6.168;2023-07-09T14:59:18;11.00;;;4.88;;
59147;SDS011;44930;52.878;6.168;2023-07-09T15:01:44;6.68;;;4.13;;
59147;SDS011;44930;52.878;6.168;2023-07-09T15:04:27;8.93;;;4.57;;
59147;SDS011;44930;52.878;6.168;2023-07-09T15:06:55;9.82;;;4.70;;
59147;SDS011;44930;52.878;6.168;2023-07-09T15:09:22;5.93;;;4.07;;
59147;SDS011;44930;52.878;6.168;2023-07-09T15:11:50;8.40;;;4.50;;
59147;SDS011;44930;52.878;6.168;2023-07-09T15:14:18;6.65;;;4.57;;
59147;SDS011;44930;52.878;6.168;2023-07-09T15:16:45;7.45;;;4.60;;
59147;SDS011;44930;52.878;6.168;2023-07-09T15:19:12;8.45;;;4.85;;
59147;SDS011;44930;52.878;6.168;2023-07-09T15:21:38;11.45;;;4.90;;
59147;SDS011;44930;52.878;6.168;2023-07-09T15:24:04;6.53;;;4.03;;